createdAt,value
2022-08-12T00:00:00.635Z,4.60
2022-08-12T00:02:46.773Z,4.50
2022-08-12T00:05:35.017Z,4.55
2022-08-12T00:08:30.934Z,4.72
2022-08-12T00:11:24.284Z,4.60
2022-08-12T00:14:10.318Z,4.65
2022-08-12T00:16:57.420Z,4.63
2022-08-12T00:19:43.508Z,4.60
2022-08-12T00:22:29.698Z,3.90
2022-08-12T00:25:19.591Z,4.18
2022-08-12T00:28:06.620Z,3.95
2022-08-12T00:30:53.267Z,5.28
2022-08-12T00:33:51.675Z,5.18
2022-08-12T00:36:45.054Z,5.03
2022-08-12T00:39:31.697Z,5.25
2022-08-12T00:42:11.861Z,5.30
2022-08-12T00:44:40.234Z,6.32
2022-08-12T00:47:08.479Z,5.90
2022-08-12T00:49:52.068Z,6.15
2022-08-12T00:52:20.135Z,6.47
2022-08-12T00:54:52.281Z,5.97
2022-08-12T00:57:23.877Z,6.05
2022-08-12T00:59:55.633Z,6.22
2022-08-12T01:02:25.112Z,6.78
2022-08-12T01:05:12.330Z,6.90
2022-08-12T01:07:59.711Z,6.60
2022-08-12T01:10:47.350Z,6.78
2022-08-12T01:13:19.479Z,6.68
2022-08-12T01:15:49.495Z,6.20
2022-08-12T01:18:17.590Z,6.05
2022-08-12T01:20:54.168Z,6.57
2022-08-12T01:23:24.518Z,5.88
2022-08-12T01:25:55.903Z,5.35
2022-08-12T01:28:25.298Z,6.10
2022-08-12T01:30:54.994Z,5.80
2022-08-12T01:33:22.787Z,5.72
2022-08-12T01:35:57.802Z,6.30
2022-08-12T01:38:36.513Z,6.25
2022-08-12T01:41:05.097Z,6.03
2022-08-12T01:43:33.214Z,6.60
2022-08-12T01:46:00.682Z,6.75
2022-08-12T01:48:40.134Z,6.30
2022-08-12T01:51:13.412Z,6.95
2022-08-12T01:54:08.394Z,7.28
2022-08-12T01:56:58.442Z,7.28
2022-08-12T01:59:49.913Z,7.10
2022-08-12T02:02:31.975Z,7.70
2022-08-12T02:05:20.985Z,7.30
2022-08-12T02:08:14.498Z,7.38
2022-08-12T02:11:17.077Z,7.20
2022-08-12T02:13:50.924Z,8.20
2022-08-12T02:16:36.921Z,7.68
2022-08-12T02:19:22.146Z,7.78
2022-08-12T02:21:51.267Z,7.97
2022-08-12T02:24:23.912Z,7.90
2022-08-12T02:26:51.705Z,7.10
2022-08-12T02:29:20.325Z,7.95
2022-08-12T02:31:48.107Z,7.93
2022-08-12T02:34:16.764Z,8.10
2022-08-12T02:36:45.676Z,7.35
2022-08-12T02:39:14.977Z,7.00
2022-08-12T02:41:48.422Z,8.05
2022-08-12T02:44:17.353Z,7.47
2022-08-12T02:46:49.759Z,7.40
2022-08-12T02:49:20.335Z,7.43
2022-08-12T02:51:47.686Z,6.72
2022-08-12T02:54:15.565Z,6.57
2022-08-12T02:56:50.306Z,7.15
2022-08-12T02:59:19.794Z,6.95
2022-08-12T03:01:48.762Z,6.72
2022-08-12T03:04:24.621Z,7.10
2022-08-12T03:07:14.530Z,7.18
2022-08-12T03:10:05.531Z,6.32
2022-08-12T03:12:49.766Z,6.00
2022-08-12T03:15:22.481Z,6.43
2022-08-12T03:18:25.626Z,6.30
2022-08-12T03:20:46.101Z,6.50
2022-08-12T03:23:28.763Z,6.32
2022-08-12T03:25:58.961Z,5.35
2022-08-12T03:28:49.478Z,6.63
2022-08-12T03:31:17.881Z,5.88
2022-08-12T03:34:00.856Z,6.10
2022-08-12T03:36:31.855Z,6.50
2022-08-12T03:39:19.312Z,5.43
2022-08-12T03:42:09.846Z,6.22
2022-08-12T03:45:02.096Z,5.63
2022-08-12T03:47:47.761Z,5.43
2022-08-12T03:50:33.869Z,5.22
2022-08-12T03:53:20.187Z,5.45
2022-08-12T03:56:06.207Z,5.68
2022-08-12T03:58:52.271Z,6.22
2022-08-12T04:01:23.150Z,6.38
2022-08-12T04:03:53.750Z,6.82
2022-08-12T04:06:34.227Z,6.72
2022-08-12T04:09:16.279Z,6.68
2022-08-12T04:12:03.750Z,6.32
2022-08-12T04:14:31.932Z,6.00
2022-08-12T04:16:59.280Z,5.50
2022-08-12T04:19:26.923Z,5.07
2022-08-12T04:22:01.755Z,6.10
2022-08-12T04:24:32.196Z,5.45
2022-08-12T04:26:59.719Z,4.57
2022-08-12T04:30:16.849Z,4.97
2022-08-12T04:32:15.938Z,5.10
2022-08-12T04:34:44.574Z,4.75
2022-08-12T04:37:13.027Z,5.13
2022-08-12T04:39:41.082Z,4.90
2022-08-12T04:42:08.514Z,5.20
2022-08-12T04:44:36.641Z,5.47
2022-08-12T04:47:04.506Z,5.45
2022-08-12T04:49:32.688Z,5.20
2022-08-12T04:52:00.574Z,4.43
2022-08-12T04:54:28.234Z,4.90
2022-08-12T04:57:03.112Z,5.35
2022-08-12T04:59:47.701Z,4.80
2022-08-12T05:02:20.884Z,4.90
2022-08-12T05:04:51.396Z,4.50
2022-08-12T05:07:18.960Z,5.00
2022-08-12T05:09:58.793Z,4.72
2022-08-12T05:12:37.506Z,3.90
2022-08-12T05:15:19.770Z,3.90
2022-08-12T05:17:53.706Z,3.45
2022-08-12T05:20:22.777Z,3.88
2022-08-12T05:22:52.994Z,3.92
2022-08-12T05:25:25.383Z,3.58
2022-08-12T05:27:57.807Z,3.72
2022-08-12T05:30:26.302Z,3.40
2022-08-12T05:32:55.771Z,3.78
2022-08-12T05:35:27.679Z,4.18
2022-08-12T05:38:15.179Z,4.15
2022-08-12T05:40:42.509Z,3.33
2022-08-12T05:43:09.949Z,3.40
2022-08-12T05:45:41.563Z,3.30
2022-08-12T05:48:11.730Z,3.88
2022-08-12T05:50:39.090Z,3.15
2022-08-12T05:53:07.135Z,3.28
2022-08-12T05:55:37.603Z,3.30
2022-08-12T05:58:06.121Z,3.42
2022-08-12T06:00:33.660Z,4.03
2022-08-12T06:03:01.498Z,3.55
2022-08-12T06:05:43.149Z,3.88
2022-08-12T06:08:21.766Z,2.90
2022-08-12T06:10:52.212Z,3.03
2022-08-12T06:13:28.459Z,2.67
2022-08-12T06:16:08.086Z,4.05
2022-08-12T06:18:35.679Z,3.35
2022-08-12T06:21:02.962Z,3.03
2022-08-12T06:23:30.998Z,4.32
2022-08-12T06:25:58.629Z,3.80
2022-08-12T06:28:28.210Z,2.63
2022-08-12T06:31:24.294Z,2.63
2022-08-12T06:33:55.521Z,2.80
2022-08-12T06:36:29.922Z,2.63
2022-08-12T06:39:01.173Z,2.75
2022-08-12T06:42:05.008Z,2.70
2022-08-12T06:44:34.513Z,2.50
2022-08-12T06:47:01.935Z,2.13
2022-08-12T06:49:33.698Z,2.75
2022-08-12T06:52:01.079Z,2.20
2022-08-12T06:54:31.558Z,2.80
2022-08-12T06:59:32.598Z,2.50
2022-08-12T07:02:00.000Z,2.50
2022-08-12T07:04:42.717Z,2.53
2022-08-12T07:07:10.850Z,2.30
2022-08-12T07:10:04.945Z,2.58
2022-08-12T07:12:30.116Z,1.90
2022-08-12T07:14:59.936Z,1.90
2022-08-12T07:17:36.181Z,2.13
2022-08-12T07:20:05.867Z,2.10
2022-08-12T07:22:34.591Z,1.92
2022-08-12T07:25:20.459Z,2.05
2022-08-12T07:27:50.505Z,1.67
2022-08-12T07:30:17.812Z,1.90
2022-08-12T07:32:51.501Z,2.58
2022-08-12T07:35:20.394Z,2.22
2022-08-12T07:37:50.564Z,2.25
2022-08-12T07:40:18.917Z,2.00
2022-08-12T07:42:46.675Z,2.20
2022-08-12T07:45:14.104Z,2.20
2022-08-12T07:47:45.054Z,1.90
2022-08-12T07:50:13.030Z,2.17
2022-08-12T07:52:42.853Z,1.75
2022-08-12T07:55:10.688Z,2.07
2022-08-12T07:57:49.310Z,1.80
2022-08-12T08:00:16.942Z,1.90
2022-08-12T08:02:44.638Z,1.73
2022-08-12T08:05:13.059Z,1.95
2022-08-12T08:07:41.725Z,1.88
2022-08-12T08:10:10.984Z,2.05
2022-08-12T08:12:58.939Z,2.03
2022-08-12T08:17:39.009Z,2.13
2022-08-12T08:20:08.149Z,1.90
2022-08-12T08:22:41.936Z,2.20
2022-08-12T08:25:20.485Z,1.80
2022-08-12T08:28:00.223Z,2.03
2022-08-12T08:30:28.989Z,2.30
2022-08-12T08:32:56.738Z,1.92
2022-08-12T08:35:25.988Z,1.67
2022-08-12T08:38:07.089Z,1.90
2022-08-12T08:40:56.954Z,2.25
2022-08-12T08:43:24.331Z,2.50
2022-08-12T08:46:10.481Z,2.05
2022-08-12T08:48:37.792Z,1.77
2022-08-12T08:51:06.187Z,1.92
2022-08-12T08:53:34.513Z,1.90
2022-08-12T08:56:05.113Z,1.75
2022-08-12T08:58:33.119Z,1.95
2022-08-12T09:01:00.843Z,1.92
2022-08-12T09:05:07.504Z,2.20
2022-08-12T09:08:14.221Z,2.15
2022-08-12T09:10:47.330Z,1.88
2022-08-12T09:14:09.881Z,1.63
2022-08-12T09:16:19.919Z,1.70
2022-08-12T09:18:48.013Z,1.75
2022-08-12T09:21:20.015Z,1.90
2022-08-12T09:26:46.227Z,2.10
2022-08-12T09:29:18.368Z,1.60
2022-08-12T09:32:03.568Z,1.65
2022-08-12T09:34:41.982Z,1.67
2022-08-12T09:37:19.463Z,1.55
2022-08-12T09:40:05.883Z,1.60
2022-08-12T09:43:16.852Z,1.67
2022-08-12T09:46:06.808Z,1.20
2022-08-12T09:48:39.243Z,1.58
2022-08-12T09:51:16.622Z,1.50
2022-08-12T09:54:33.715Z,2.20
2022-08-12T09:56:58.852Z,2.53
2022-08-12T10:00:17.329Z,1.40
2022-08-12T10:02:45.681Z,1.88
2022-08-12T10:05:00.604Z,1.52
2022-08-12T10:07:40.316Z,1.70
2022-08-12T10:10:22.825Z,1.63
2022-08-12T10:13:16.859Z,1.58
2022-08-12T10:16:01.830Z,1.60
2022-08-12T10:18:35.181Z,1.90
2022-08-12T10:21:06.002Z,2.17
2022-08-12T10:23:40.784Z,1.67
2022-08-12T10:26:37.787Z,1.60
2022-08-12T10:30:03.245Z,2.17
2022-08-12T10:32:43.831Z,1.38
2022-08-12T10:35:08.989Z,1.95
2022-08-12T10:38:38.444Z,1.52
2022-08-12T10:40:31.592Z,2.00
2022-08-12T10:43:18.488Z,2.00
2022-08-12T10:45:49.396Z,1.70
2022-08-12T10:48:21.804Z,1.67
2022-08-12T10:51:00.887Z,1.50
2022-08-12T10:53:45.823Z,1.45
2022-08-12T10:56:17.767Z,1.58
2022-08-12T10:58:47.688Z,1.58
2022-08-12T11:01:48.857Z,1.70
2022-08-12T11:04:27.793Z,2.28
2022-08-12T11:07:09.013Z,2.17
2022-08-12T11:10:00.525Z,1.70
2022-08-12T11:12:54.740Z,1.20
2022-08-12T11:15:19.361Z,1.50
2022-08-12T11:17:54.006Z,1.35
2022-08-12T11:20:30.894Z,1.17
2022-08-12T11:23:36.500Z,1.38
2022-08-12T11:25:57.555Z,1.73
2022-08-12T11:28:33.899Z,1.45
2022-08-12T11:31:03.391Z,1.52
2022-08-12T11:34:04.319Z,1.48
2022-08-12T11:36:21.840Z,1.13
2022-08-12T11:38:50.953Z,1.70
2022-08-12T11:41:31.032Z,1.50
2022-08-12T11:44:07.245Z,1.30
2022-08-12T11:46:51.147Z,1.30
2022-08-12T11:49:30.641Z,1.75
2022-08-12T11:52:00.311Z,1.30
2022-08-12T11:54:29.783Z,1.52
2022-08-12T11:57:00.095Z,1.33
2022-08-12T12:02:19.248Z,1.35
2022-08-12T12:04:52.692Z,1.45
2022-08-12T12:07:22.634Z,1.55
2022-08-12T12:10:01.515Z,1.60
2022-08-12T12:12:28.866Z,1.40
2022-08-12T12:14:58.643Z,1.48
2022-08-12T12:17:38.045Z,1.42
2022-08-12T12:20:09.303Z,1.23
2022-08-12T12:25:12.585Z,0.90
2022-08-12T12:28:04.972Z,0.98
2022-08-12T12:30:33.703Z,1.40
2022-08-12T12:33:01.377Z,1.25
2022-08-12T12:36:16.506Z,2.80
2022-08-12T12:38:17.525Z,2.70
2022-08-12T12:40:45.961Z,2.80
2022-08-12T12:43:17.774Z,2.60
2022-08-12T12:46:05.643Z,2.58
2022-08-12T12:48:33.388Z,3.42
2022-08-12T12:51:48.870Z,2.60
2022-08-12T12:54:06.210Z,2.30
2022-08-12T12:56:37.712Z,2.30
2022-08-12T12:59:06.112Z,1.95
2022-08-12T13:01:38.403Z,2.40
2022-08-12T13:04:12.026Z,1.75
2022-08-12T13:06:42.091Z,1.83
2022-08-12T13:09:13.169Z,1.53
2022-08-12T13:11:44.269Z,1.70
2022-08-12T13:14:29.166Z,2.30
2022-08-12T13:17:02.604Z,3.40
2022-08-12T13:19:37.896Z,3.72
2022-08-12T13:22:18.577Z,3.20
2022-08-12T13:24:52.110Z,2.70
2022-08-12T13:27:28.387Z,3.38
2022-08-12T13:30:06.594Z,3.35
2022-08-12T13:32:34.356Z,2.90
2022-08-12T13:35:04.271Z,3.38
2022-08-12T13:37:54.779Z,2.55
2022-08-12T13:40:24.703Z,2.40
2022-08-12T13:42:57.669Z,2.40
2022-08-12T13:45:26.222Z,2.28
2022-08-12T13:47:56.045Z,3.38
2022-08-12T13:50:26.623Z,3.20
2022-08-12T13:55:30.990Z,3.60
2022-08-12T13:57:59.860Z,2.70
2022-08-12T14:00:38.045Z,2.67
2022-08-12T14:03:06.807Z,2.33
2022-08-12T14:05:39.124Z,2.22
2022-08-12T14:08:07.826Z,2.13
2022-08-12T14:10:37.752Z,2.65
2022-08-12T14:13:10.512Z,4.43
2022-08-12T14:15:50.307Z,3.20
2022-08-12T14:18:19.105Z,2.83
2022-08-12T14:20:51.424Z,3.28
2022-08-12T14:24:04.342Z,2.42
2022-08-12T14:26:11.892Z,3.40
2022-08-12T14:28:45.180Z,2.30
2022-08-12T14:31:31.377Z,2.08
2022-08-12T14:33:59.901Z,1.63
2022-08-12T14:36:27.472Z,2.10
2022-08-12T14:38:56.009Z,1.60
2022-08-12T14:41:36.515Z,1.73
2022-08-12T14:44:58.277Z,2.00
2022-08-12T14:46:57.002Z,1.83
2022-08-12T14:50:37.063Z,2.22
2022-08-12T14:53:26.221Z,2.15
2022-08-12T14:57:57.786Z,1.65
2022-08-12T15:00:47.852Z,2.03
2022-08-12T15:03:20.603Z,2.33
2022-08-12T15:06:06.250Z,2.00
2022-08-12T15:08:41.340Z,1.80
2022-08-12T15:11:14.233Z,1.90
2022-08-12T15:13:53.588Z,1.67
2022-08-12T15:16:21.551Z,2.33
2022-08-12T15:18:55.356Z,2.10
2022-08-12T15:21:25.211Z,1.80
2022-08-12T15:24:12.573Z,1.80
2022-08-12T15:26:42.454Z,1.95
2022-08-12T15:29:10.491Z,2.25
2022-08-12T15:32:01.809Z,1.88
2022-08-12T15:34:30.719Z,1.65
2022-08-12T15:36:58.165Z,1.90
2022-08-12T15:39:27.649Z,2.28
2022-08-12T15:41:55.629Z,2.25
2022-08-12T15:44:38.517Z,1.90
2022-08-12T15:47:09.859Z,1.83
2022-08-12T15:49:54.676Z,1.40
2022-08-12T15:52:27.453Z,2.08
2022-08-12T15:54:58.553Z,3.38
2022-08-12T15:57:26.499Z,2.72
2022-08-12T16:00:07.221Z,2.88
2022-08-12T16:05:02.269Z,2.67
2022-08-12T16:07:50.984Z,2.22
2022-08-12T16:10:19.271Z,2.03
2022-08-12T16:12:55.356Z,2.45
2022-08-12T16:15:24.990Z,2.23
2022-08-12T16:20:41.892Z,1.90
2022-08-12T16:23:26.703Z,1.65
2022-08-12T16:26:05.694Z,2.03
2022-08-12T16:28:33.807Z,2.00
2022-08-12T16:31:01.864Z,2.22
2022-08-12T16:33:59.515Z,2.05
2022-08-12T16:36:25.602Z,1.60
2022-08-12T16:38:53.027Z,2.35
2022-08-12T16:41:20.335Z,1.73
2022-08-12T16:43:48.199Z,1.95
2022-08-12T16:46:32.135Z,1.95
2022-08-12T16:49:04.204Z,2.45
2022-08-12T16:51:40.497Z,2.40
2022-08-12T16:54:15.976Z,2.03
2022-08-12T16:56:54.639Z,2.42
2022-08-12T16:59:25.622Z,2.25
2022-08-12T17:01:54.033Z,2.22
2022-08-12T17:04:24.281Z,1.80
2022-08-12T17:06:52.758Z,1.83
2022-08-12T17:09:20.289Z,1.70
2022-08-12T17:11:49.676Z,1.77
2022-08-12T17:14:20.395Z,1.92
2022-08-12T17:16:52.122Z,1.92
2022-08-12T17:19:20.315Z,2.33
2022-08-12T17:22:08.900Z,1.90
2022-08-12T17:24:37.362Z,1.95
2022-08-12T17:27:16.242Z,1.70
2022-08-12T17:30:02.510Z,2.40
2022-08-12T17:32:33.831Z,2.03
2022-08-12T17:35:20.245Z,2.22
2022-08-12T17:37:48.783Z,2.10
2022-08-12T17:40:34.887Z,2.17
2022-08-12T17:43:55.616Z,1.90
2022-08-12T17:45:59.689Z,1.88
2022-08-12T17:48:34.203Z,2.35
2022-08-12T17:51:07.122Z,2.30
2022-08-12T17:54:06.367Z,2.80
2022-08-12T17:56:24.149Z,2.40
2022-08-12T17:58:58.140Z,2.92
2022-08-12T18:01:28.865Z,2.50
2022-08-12T18:04:20.637Z,2.03
2022-08-12T18:06:49.277Z,2.28
2022-08-12T18:09:18.272Z,2.30
2022-08-12T18:12:08.370Z,2.50
2022-08-12T18:14:37.226Z,2.50
2022-08-12T18:17:08.650Z,2.40
2022-08-12T18:20:06.080Z,3.17
2022-08-12T18:22:39.403Z,2.83
2022-08-12T18:25:24.963Z,2.97
2022-08-12T18:28:15.720Z,2.50
2022-08-12T18:30:53.283Z,2.95
2022-08-12T18:33:26.716Z,2.90
2022-08-12T18:35:55.679Z,3.22
2022-08-12T18:38:25.744Z,2.90
2022-08-12T18:41:22.650Z,2.80
2022-08-12T18:43:58.750Z,2.90
2022-08-12T18:46:32.393Z,2.60
2022-08-12T18:49:02.466Z,3.22
2022-08-12T18:51:55.304Z,3.28
2022-08-12T18:54:30.216Z,3.15
2022-08-12T18:57:01.719Z,3.33
2022-08-12T18:59:59.981Z,3.35
2022-08-12T19:02:22.430Z,3.33
2022-08-12T19:04:53.877Z,2.38
2022-08-12T19:07:29.900Z,2.60
2022-08-12T19:10:13.922Z,2.60
2022-08-12T19:13:00.634Z,2.50
2022-08-12T19:15:29.770Z,2.90
2022-08-12T19:18:02.445Z,2.88
2022-08-12T19:20:31.900Z,2.30
2022-08-12T19:23:02.606Z,3.40
2022-08-12T19:26:01.710Z,3.25
2022-08-12T19:28:30.239Z,3.30
2022-08-12T19:31:45.106Z,4.57
2022-08-12T19:34:55.892Z,4.53
2022-08-12T19:37:10.879Z,4.55
2022-08-12T19:40:09.572Z,4.57
2022-08-12T19:42:28.172Z,4.60
2022-08-12T19:45:04.582Z,4.03
2022-08-12T19:47:39.040Z,4.10
2022-08-12T19:50:11.276Z,9.15
2022-08-12T19:52:40.822Z,4.03
2022-08-12T19:55:19.287Z,4.20
2022-08-12T19:58:02.325Z,3.67
2022-08-12T20:00:30.236Z,4.50
2022-08-12T20:03:00.760Z,4.20
2022-08-12T20:06:05.028Z,4.50
2022-08-12T20:08:31.322Z,4.60
2022-08-12T20:12:14.234Z,4.70
2022-08-12T20:14:01.469Z,4.28
2022-08-12T20:16:52.782Z,4.20
2022-08-12T20:19:17.358Z,4.63
2022-08-12T20:21:45.193Z,4.43
2022-08-12T20:24:14.163Z,4.47
2022-08-12T20:26:42.376Z,4.65
2022-08-12T20:29:11.014Z,4.50
2022-08-12T20:31:39.705Z,4.88
2022-08-12T20:34:07.494Z,4.45
2022-08-12T20:36:42.323Z,4.90
2022-08-12T20:39:34.149Z,5.90
2022-08-12T20:42:07.421Z,5.70
2022-08-12T20:44:39.584Z,6.20
2022-08-12T20:47:17.973Z,8.23
2022-08-12T20:49:55.403Z,9.70
2022-08-12T20:52:30.230Z,8.95
2022-08-12T20:55:18.949Z,8.10
2022-08-12T20:58:02.733Z,8.30
2022-08-12T21:00:32.323Z,7.68
2022-08-12T21:03:20.386Z,5.00
2022-08-12T21:06:12.838Z,5.93
2022-08-12T21:08:41.648Z,5.53
2022-08-12T21:11:10.548Z,6.38
2022-08-12T21:13:42.260Z,6.72
2022-08-12T21:16:10.309Z,7.05
2022-08-12T21:18:38.113Z,6.72
2022-08-12T21:21:06.746Z,7.43
2022-08-12T21:23:50.706Z,8.50
2022-08-12T21:26:18.967Z,7.85
2022-08-12T21:28:56.841Z,7.05
2022-08-12T21:32:40.437Z,7.20
2022-08-12T21:34:22.112Z,6.57
2022-08-12T21:36:53.675Z,7.03
2022-08-12T21:39:27.900Z,7.43
2022-08-12T21:42:06.662Z,7.13
2022-08-12T21:45:44.012Z,6.88
2022-08-12T21:47:23.618Z,5.70
2022-08-12T21:50:04.218Z,5.10
2022-08-12T21:52:41.090Z,4.97
2022-08-12T21:55:18.389Z,4.68
2022-08-12T21:57:54.762Z,4.97
2022-08-12T22:00:35.185Z,5.20
2022-08-12T22:04:02.000Z,5.00
2022-08-12T22:06:30.966Z,6.65
2022-08-12T22:09:11.216Z,3.58
2022-08-12T22:11:49.146Z,3.55
2022-08-12T22:14:24.922Z,3.47
2022-08-12T22:16:53.857Z,3.10
2022-08-12T22:19:22.896Z,3.03
2022-08-12T22:21:54.697Z,3.60
2022-08-12T22:24:26.701Z,3.33
2022-08-12T22:26:57.075Z,3.17
2022-08-12T22:29:43.381Z,3.50
2022-08-12T22:32:12.079Z,3.75
2022-08-12T22:34:39.908Z,3.33
2022-08-12T22:37:19.585Z,3.80
2022-08-12T22:39:49.232Z,3.30
2022-08-12T22:42:35.867Z,3.40
2022-08-12T22:45:56.342Z,3.58
2022-08-12T22:48:26.598Z,3.28
2022-08-12T22:50:56.487Z,3.47
2022-08-12T22:53:36.266Z,3.25
2022-08-12T22:56:06.356Z,3.25
2022-08-12T22:58:40.188Z,3.33
2022-08-12T23:01:08.206Z,3.58
2022-08-12T23:03:48.282Z,3.72
2022-08-12T23:08:46.891Z,3.92
2022-08-12T23:11:16.041Z,3.83
2022-08-12T23:13:55.153Z,3.97
2022-08-12T23:16:29.417Z,3.58
2022-08-12T23:19:10.074Z,3.67
2022-08-12T23:22:04.416Z,4.38
2022-08-12T23:24:38.573Z,3.60
2022-08-12T23:27:24.974Z,3.90
2022-08-12T23:30:19.214Z,4.05
2022-08-12T23:32:54.830Z,3.47
2022-08-12T23:35:45.786Z,4.10
2022-08-12T23:38:30.794Z,4.00
2022-08-12T23:41:00.035Z,4.35
2022-08-12T23:43:39.750Z,4.55
2022-08-12T23:46:09.047Z,4.10
2022-08-12T23:48:37.875Z,3.90
2022-08-12T23:51:21.693Z,4.10
2022-08-12T23:53:50.708Z,4.07
2022-08-12T23:56:18.162Z,3.80
2022-08-12T23:58:52.731Z,3.85
